createdAt,value
2024-03-16T00:03:47.720Z,8.12
2024-03-16T00:08:56.509Z,8.13
2024-03-16T00:14:01.731Z,8.09
2024-03-16T00:19:05.109Z,8.08
2024-03-16T00:24:11.280Z,8.05
2024-03-16T00:29:17.214Z,8.01
2024-03-16T00:34:23.774Z,7.99
2024-03-16T00:39:29.952Z,7.94
2024-03-16T00:44:32.961Z,7.89
2024-03-16T00:49:37.579Z,7.87
2024-03-16T00:54:43.112Z,7.84
2024-03-16T00:59:48.205Z,7.82
2024-03-16T01:04:51.226Z,7.79
2024-03-16T01:09:59.556Z,7.77
2024-03-16T01:15:02.923Z,7.72
2024-03-16T01:20:08.471Z,7.69
2024-03-16T01:25:12.310Z,7.65
2024-03-16T01:30:16.816Z,7.62
2024-03-16T01:35:25.511Z,7.59
2024-03-16T01:40:29.025Z,7.59
2024-03-16T01:45:34.721Z,7.59
2024-03-16T01:50:39.387Z,7.57
2024-03-16T01:55:42.563Z,7.59
2024-03-16T02:00:49.065Z,7.66
2024-03-16T02:05:52.646Z,7.74
2024-03-16T02:10:57.972Z,7.82
2024-03-16T02:16:03.021Z,7.90
2024-03-16T02:21:12.884Z,7.98
2024-03-16T02:26:16.463Z,8.07
2024-03-16T02:31:21.344Z,8.17
2024-03-16T02:36:24.374Z,8.29
2024-03-16T02:41:27.369Z,8.36
2024-03-16T02:46:33.729Z,8.39
2024-03-16T02:51:36.807Z,8.45
2024-03-16T03:01:58.719Z,8.60
2024-03-16T03:07:05.569Z,8.65
2024-03-16T03:12:11.343Z,8.66
2024-03-16T03:17:15.637Z,8.67
2024-03-16T03:22:19.736Z,8.74
2024-03-16T03:27:24.696Z,8.78
2024-03-16T03:32:30.537Z,8.83
2024-03-16T03:37:38.875Z,8.87
2024-03-16T03:42:49.265Z,8.90
2024-03-16T03:48:02.804Z,8.92
2024-03-16T03:53:06.930Z,8.96
2024-03-16T03:58:11.635Z,8.99
2024-03-16T04:03:18.249Z,9.00
2024-03-16T04:08:23.730Z,8.97
2024-03-16T04:13:29.430Z,8.90
2024-03-16T04:18:37.654Z,8.85
2024-03-16T04:23:40.468Z,8.84
2024-03-16T04:28:46.176Z,8.83
2024-03-16T04:33:49.241Z,8.83
2024-03-16T04:38:55.417Z,8.81
2024-03-16T04:43:58.265Z,8.80
2024-03-16T04:49:01.495Z,8.81
2024-03-16T04:54:07.555Z,8.82
2024-03-16T04:59:12.798Z,8.81
2024-03-16T05:04:15.525Z,8.78
2024-03-16T05:09:18.959Z,8.74
2024-03-16T05:14:29.001Z,8.69
2024-03-16T05:19:35.796Z,8.60
2024-03-16T05:24:38.781Z,8.53
2024-03-16T05:29:45.395Z,8.48
2024-03-16T05:34:49.786Z,8.50
2024-03-16T05:39:55.756Z,8.65
2024-03-16T05:45:02.062Z,8.83
2024-03-16T05:50:08.548Z,9.15
2024-03-16T05:55:13.642Z,9.34
2024-03-16T06:00:20.945Z,9.40
2024-03-16T06:05:25.594Z,9.50
2024-03-16T06:10:29.502Z,9.57
2024-03-16T06:15:32.290Z,9.71
2024-03-16T06:20:35.165Z,9.87
2024-03-16T06:25:50.051Z,9.94
2024-03-16T06:31:01.290Z,9.97
2024-03-16T06:36:05.605Z,10.06
2024-03-16T06:41:10.918Z,10.20
2024-03-16T06:46:14.872Z,10.29
2024-03-16T06:51:20.701Z,10.39
2024-03-16T06:56:27.017Z,10.47
2024-03-16T07:01:32.460Z,10.59
2024-03-16T07:06:35.775Z,10.78
2024-03-16T07:11:48.278Z,10.94
2024-03-16T07:16:54.144Z,11.08
2024-03-16T07:22:00.578Z,11.28
2024-03-16T07:27:03.527Z,11.38
2024-03-16T07:32:07.029Z,11.46
2024-03-16T07:37:10.058Z,11.66
2024-03-16T07:42:12.868Z,11.90
2024-03-16T07:47:15.590Z,12.17
2024-03-16T07:52:18.921Z,12.48
2024-03-16T07:57:25.552Z,12.88
2024-03-16T08:02:30.657Z,13.48
2024-03-16T08:07:34.231Z,14.01
2024-03-16T08:12:39.470Z,14.17
2024-03-16T08:17:42.329Z,14.01
2024-03-16T08:22:57.548Z,13.98
2024-03-16T08:28:03.682Z,14.11
2024-03-16T08:33:07.465Z,13.91
2024-03-16T08:38:13.122Z,13.66
2024-03-16T08:43:18.773Z,13.38
2024-03-16T08:48:24.508Z,13.17
2024-03-16T08:53:34.975Z,13.00
2024-03-16T08:58:37.819Z,12.84
2024-03-16T09:03:40.641Z,12.70
2024-03-16T09:08:43.759Z,12.67
2024-03-16T09:13:47.504Z,12.86
2024-03-16T09:18:54.544Z,13.24
2024-03-16T09:23:57.478Z,14.00
2024-03-16T09:29:00.474Z,16.33
2024-03-16T09:34:06.348Z,19.64
2024-03-16T09:39:13.792Z,22.65
2024-03-16T09:44:21.427Z,24.58
2024-03-16T09:49:27.442Z,25.54
2024-03-16T09:54:33.990Z,25.40
2024-03-16T09:59:37.221Z,24.05
2024-03-16T10:04:42.091Z,23.06
2024-03-16T10:09:57.516Z,22.93
2024-03-16T10:15:20.949Z,23.28
2024-03-16T10:20:27.429Z,23.21
2024-03-16T10:25:37.669Z,22.70
2024-03-16T10:30:44.792Z,22.01
2024-03-16T10:35:50.575Z,21.32
2024-03-16T10:41:06.033Z,20.83
2024-03-16T10:46:16.722Z,20.46
2024-03-16T10:51:25.331Z,20.25
2024-03-16T10:56:33.648Z,19.95
2024-03-16T11:01:42.770Z,19.79
2024-03-16T11:06:45.477Z,19.66
2024-03-16T11:11:51.316Z,19.59
2024-03-16T11:16:54.262Z,19.63
2024-03-16T11:22:02.701Z,19.84
2024-03-16T11:27:12.364Z,19.92
2024-03-16T11:32:16.112Z,19.82
2024-03-16T11:37:18.801Z,19.86
2024-03-16T11:42:21.873Z,19.73
2024-03-16T11:47:26.957Z,19.92
2024-03-16T11:52:31.241Z,20.06
2024-03-16T11:57:37.380Z,19.94
2024-03-16T12:02:50.823Z,19.75
2024-03-16T12:07:55.760Z,19.73
2024-03-16T12:12:58.981Z,19.62
2024-03-16T12:18:09.349Z,19.58
2024-03-16T12:23:20.339Z,19.40
2024-03-16T12:28:36.608Z,18.86
2024-03-16T12:33:44.444Z,18.74
2024-03-16T12:38:49.961Z,19.02
2024-03-16T12:43:52.561Z,19.34
2024-03-16T12:48:57.795Z,19.27
2024-03-16T12:54:10.937Z,19.14
2024-03-16T12:59:16.683Z,19.31
2024-03-16T13:04:22.144Z,19.30
2024-03-16T13:09:27.893Z,19.28
2024-03-16T13:14:30.748Z,19.15
2024-03-16T13:19:35.286Z,18.91
2024-03-16T13:24:40.153Z,18.00
2024-03-16T13:29:48.271Z,18.54
2024-03-16T13:34:57.245Z,19.95
2024-03-16T13:40:00.800Z,19.14
2024-03-16T13:45:06.186Z,17.50
2024-03-16T13:50:15.480Z,17.29
2024-03-16T13:55:24.030Z,17.07
2024-03-16T14:00:33.182Z,16.94
2024-03-16T14:05:41.827Z,16.62
2024-03-16T14:10:44.855Z,16.41
2024-03-16T14:15:49.546Z,16.41
2024-03-16T14:20:55.909Z,16.15
2024-03-16T14:26:01.333Z,16.29
2024-03-16T14:31:04.942Z,16.53
2024-03-16T14:36:08.354Z,16.54
2024-03-16T14:41:14.647Z,16.53
2024-03-16T14:46:17.792Z,16.57
2024-03-16T14:51:24.399Z,16.62
2024-03-16T14:56:31.504Z,16.71
2024-03-16T15:01:36.689Z,16.55
2024-03-16T15:06:39.923Z,16.59
2024-03-16T15:11:42.749Z,16.98
2024-03-16T15:16:45.626Z,16.57
2024-03-16T15:21:55.246Z,16.17
2024-03-16T15:27:08.119Z,15.77
2024-03-16T15:32:14.008Z,15.52
2024-03-16T15:37:18.182Z,15.24
2024-03-16T15:42:22.588Z,15.00
2024-03-16T15:47:25.749Z,14.78
2024-03-16T15:52:28.331Z,14.55
2024-03-16T15:57:34.318Z,14.41
2024-03-16T16:02:39.211Z,14.32
2024-03-16T16:07:43.063Z,14.28
2024-03-16T16:12:52.230Z,14.39
2024-03-16T16:17:55.087Z,14.53
2024-03-16T16:22:58.327Z,14.57
2024-03-16T16:28:01.729Z,14.51
2024-03-16T16:33:10.132Z,14.37
2024-03-16T16:38:12.947Z,14.27
2024-03-16T16:43:17.669Z,14.20
2024-03-16T16:48:24.946Z,14.16
2024-03-16T16:53:35.556Z,14.07
2024-03-16T16:58:38.266Z,13.94
2024-03-16T17:03:43.361Z,13.84
2024-03-16T17:08:55.049Z,13.79
2024-03-16T17:14:03.035Z,13.78
2024-03-16T17:19:05.742Z,13.74
2024-03-16T17:24:11.588Z,13.72
2024-03-16T17:29:14.307Z,13.72
2024-03-16T17:34:22.744Z,13.71
2024-03-16T17:39:27.897Z,13.73
2024-03-16T17:44:35.668Z,13.75
2024-03-16T17:49:40.070Z,13.76
2024-03-16T17:54:46.902Z,13.65
2024-03-16T17:59:49.585Z,13.19
2024-03-16T18:04:53.115Z,12.72
2024-03-16T18:09:55.877Z,12.28
2024-03-16T18:14:58.548Z,12.01
2024-03-16T18:20:01.270Z,11.80
2024-03-16T18:25:08.340Z,11.75
2024-03-16T18:30:15.940Z,11.57
2024-03-16T18:35:25.074Z,11.37
2024-03-16T18:40:29.254Z,11.26
2024-03-16T18:45:38.549Z,11.23
2024-03-16T18:50:41.214Z,11.22
2024-03-16T18:55:45.292Z,11.25
2024-03-16T19:00:52.344Z,11.24
2024-03-16T19:05:55.214Z,11.28
2024-03-16T19:10:58.244Z,11.32
2024-03-16T19:16:01.302Z,11.31
2024-03-16T19:21:04.211Z,11.35
2024-03-16T19:26:07.942Z,11.17
2024-03-16T19:31:10.702Z,10.77
2024-03-16T19:36:16.509Z,10.49
2024-03-16T19:41:23.644Z,10.22
2024-03-16T19:46:31.701Z,9.96
2024-03-16T19:51:36.680Z,9.80
2024-03-16T19:56:41.965Z,9.68
2024-03-16T20:01:48.734Z,9.54
2024-03-16T20:06:55.973Z,9.42
2024-03-16T20:12:00.011Z,9.34
2024-03-16T20:17:12.110Z,9.31
2024-03-16T20:22:15.105Z,9.31
2024-03-16T20:27:20.734Z,9.37
2024-03-16T20:32:24.555Z,9.32
2024-03-16T20:37:35.105Z,9.16
2024-03-16T20:42:40.187Z,9.00
2024-03-16T20:47:43.984Z,8.92
2024-03-16T20:52:47.578Z,8.88
2024-03-16T20:57:56.413Z,8.82
2024-03-16T21:03:02.704Z,8.74
2024-03-16T21:08:06.332Z,8.72
2024-03-16T21:13:09.475Z,8.69
2024-03-16T21:18:13.278Z,8.62
2024-03-16T21:23:16.432Z,8.58
2024-03-16T21:28:24.102Z,8.47
2024-03-16T21:33:34.364Z,8.35
2024-03-16T21:38:37.323Z,8.24
2024-03-16T21:43:40.151Z,8.17
2024-03-16T21:48:46.231Z,8.05
2024-03-16T21:53:53.960Z,7.87
2024-03-16T21:59:03.174Z,7.75
2024-03-16T22:04:06.406Z,7.59
2024-03-16T22:09:10.473Z,7.46
2024-03-16T22:14:15.613Z,7.32
2024-03-16T22:19:18.305Z,7.17
2024-03-16T22:24:21.070Z,7.05
2024-03-16T22:29:26.901Z,6.92
2024-03-16T22:34:29.676Z,6.88
2024-03-16T22:39:32.463Z,6.83
2024-03-16T22:44:35.516Z,6.75
2024-03-16T22:49:41.568Z,6.64
2024-03-16T22:54:45.197Z,6.56
2024-03-16T22:59:50.085Z,6.54
2024-03-16T23:04:55.684Z,6.46
2024-03-16T23:10:00.577Z,6.36
2024-03-16T23:15:09.713Z,6.21
2024-03-16T23:20:24.055Z,6.18
2024-03-16T23:25:29.618Z,6.14
2024-03-16T23:30:34.459Z,6.03
2024-03-16T23:35:40.139Z,6.02
2024-03-16T23:40:43.366Z,6.00
2024-03-16T23:45:46.085Z,5.92
2024-03-16T23:50:49.197Z,5.84
2024-03-16T23:55:52.236Z,5.76
